Terminal Aerodrome Forecast
Issued by NWS

Home | Current Version | Previous Version | Text Only | Print | Product List | Glossary On
Versions: 1 2 3 4 5 6 7 8 9 10 11 12 13 14 15 16 17 18 19 20 21 22 23 24
811
FTUS43 KABR 092332
TAFATY
TAF
KATY 092332Z 1000/1024 33006KT P6SM OVC050
     FM101100 10006KT 3SM BR OVC015
     FM101200 12005KT 2SM -SN OVC009
     FM101800 12009KT 3SM BR OVC007
     FM102300 VRB05KT P6SM OVC006=

USA.gov is the U.S. government's official web portal to all federal, state and local government web resources and services.